createdAt,value
2018-06-16T00:01:10.860Z,3.37
2018-06-16T00:03:38.832Z,3.60
2018-06-16T00:06:06.814Z,3.50
2018-06-16T00:08:34.739Z,3.40
2018-06-16T00:11:02.700Z,3.63
2018-06-16T00:13:30.916Z,3.37
2018-06-16T00:15:59.077Z,3.33
2018-06-16T00:18:27.083Z,3.73
2018-06-16T00:20:55.212Z,4.07
2018-06-16T00:23:23.225Z,3.80
2018-06-16T00:25:51.216Z,3.27
2018-06-16T00:28:19.188Z,3.60
2018-06-16T00:30:47.189Z,2.70
2018-06-16T00:33:15.153Z,3.00
2018-06-16T00:35:43.134Z,3.23
2018-06-16T00:38:11.096Z,3.90
2018-06-16T00:40:39.052Z,3.47
2018-06-16T00:43:07.072Z,3.50
2018-06-16T00:45:35.500Z,4.30
2018-06-16T00:48:03.829Z,3.10
2018-06-16T00:50:32.096Z,3.93
2018-06-16T00:53:00.173Z,3.83
2018-06-16T00:55:28.441Z,4.10
2018-06-16T00:57:56.707Z,3.87
2018-06-16T01:00:25.059Z,5.03
2018-06-16T01:02:53.384Z,4.63
2018-06-16T01:05:21.623Z,3.57
2018-06-16T01:07:49.808Z,4.43
2018-06-16T01:10:18.413Z,4.63
2018-06-16T01:12:46.758Z,4.40
2018-06-16T01:15:15.160Z,5.07
2018-06-16T01:17:43.513Z,3.90
2018-06-16T01:20:12.077Z,4.07
2018-06-16T01:22:40.603Z,4.83
2018-06-16T01:25:08.992Z,3.93
2018-06-16T01:27:37.235Z,5.10
2018-06-16T01:30:05.392Z,4.43
2018-06-16T01:32:34.739Z,4.80
2018-06-16T01:35:03.003Z,4.43
2018-06-16T01:37:31.368Z,4.77
2018-06-16T01:39:59.590Z,4.73
2018-06-16T01:42:27.833Z,4.50
2018-06-16T01:44:56.097Z,5.33
2018-06-16T01:47:24.323Z,4.77
2018-06-16T01:49:52.653Z,4.93
2018-06-16T01:52:21.027Z,4.20
2018-06-16T01:54:49.270Z,4.57
2018-06-16T01:57:17.601Z,4.43
2018-06-16T01:59:45.842Z,4.93
2018-06-16T02:02:14.080Z,5.37
2018-06-16T02:04:42.365Z,4.27
2018-06-16T02:07:10.675Z,4.20
2018-06-16T02:09:38.909Z,5.10
2018-06-16T02:12:07.457Z,4.57
2018-06-16T02:14:35.686Z,4.17
2018-06-16T02:17:03.980Z,4.20
2018-06-16T02:19:32.359Z,3.80
2018-06-16T02:22:01.160Z,4.53
2018-06-16T02:24:29.477Z,4.13
2018-06-16T02:26:57.696Z,4.60
2018-06-16T02:29:25.912Z,4.50
2018-06-16T02:31:54.135Z,4.60
2018-06-16T02:34:22.420Z,5.00
2018-06-16T02:36:50.691Z,3.43
2018-06-16T02:39:18.933Z,4.27
2018-06-16T02:41:47.195Z,5.20
2018-06-16T02:44:15.423Z,4.60
2018-06-16T02:46:43.453Z,3.57
2018-06-16T02:49:11.668Z,4.90
2018-06-16T02:51:39.736Z,4.53
2018-06-16T02:54:08.112Z,4.10
2018-06-16T02:56:36.645Z,4.63
2018-06-16T02:59:05.112Z,4.87
2018-06-16T03:01:33.378Z,7.87
2018-06-16T03:04:01.626Z,5.40
2018-06-16T03:06:29.922Z,6.33
2018-06-16T03:08:58.184Z,4.30
2018-06-16T03:11:26.465Z,4.90
2018-06-16T03:13:54.690Z,4.83
2018-06-16T03:16:22.919Z,4.07
2018-06-16T03:18:51.146Z,4.77
2018-06-16T03:21:19.142Z,4.47
2018-06-16T03:23:47.490Z,4.17
2018-06-16T03:26:15.723Z,3.40
2018-06-16T03:28:43.986Z,4.97
2018-06-16T03:31:12.471Z,4.43
2018-06-16T03:33:40.853Z,5.07
2018-06-16T03:36:09.080Z,4.17
2018-06-16T03:38:37.358Z,3.80
2018-06-16T03:41:05.697Z,4.13
2018-06-16T03:43:34.157Z,4.67
2018-06-16T03:46:02.514Z,4.27
2018-06-16T03:48:30.722Z,4.20
2018-06-16T03:50:58.983Z,4.70
2018-06-16T03:53:27.210Z,4.30
2018-06-16T03:55:55.564Z,4.30
2018-06-16T03:58:24.017Z,3.87
2018-06-16T04:00:52.263Z,3.90
2018-06-16T04:03:20.466Z,3.70
2018-06-16T04:05:48.860Z,2.97
2018-06-16T04:08:17.238Z,3.50
2018-06-16T04:10:45.469Z,3.83
2018-06-16T04:13:13.655Z,3.43
2018-06-16T04:15:41.841Z,3.27
2018-06-16T04:18:10.054Z,3.87
2018-06-16T04:20:38.399Z,3.63
2018-06-16T04:23:06.669Z,3.50
2018-06-16T04:25:34.951Z,3.80
2018-06-16T04:28:02.961Z,3.60
2018-06-16T04:30:31.308Z,4.83
2018-06-16T04:32:59.705Z,3.63
2018-06-16T04:35:27.816Z,3.80
2018-06-16T04:37:56.229Z,3.27
2018-06-16T04:40:24.460Z,3.77
2018-06-16T04:42:52.438Z,3.80
2018-06-16T04:45:20.943Z,3.70
2018-06-16T04:47:49.187Z,3.30
2018-06-16T04:50:17.557Z,3.33
2018-06-16T04:52:45.909Z,5.00
2018-06-16T04:55:14.121Z,4.00
2018-06-16T04:57:42.362Z,4.30
2018-06-16T05:00:10.630Z,3.97
2018-06-16T05:02:38.894Z,3.83
2018-06-16T05:05:07.174Z,3.23
2018-06-16T05:07:35.149Z,3.70
2018-06-16T05:10:03.491Z,4.70
2018-06-16T05:12:31.715Z,4.70
2018-06-16T05:14:59.954Z,4.10
2018-06-16T05:17:28.256Z,4.10
2018-06-16T05:19:56.617Z,3.60
2018-06-16T05:22:24.906Z,3.33
2018-06-16T05:24:53.171Z,4.10
2018-06-16T05:27:21.577Z,4.00
2018-06-16T05:29:49.922Z,4.10
2018-06-16T05:32:18.205Z,4.50
2018-06-16T05:34:46.692Z,4.10
2018-06-16T05:37:14.982Z,4.60
2018-06-16T05:39:43.639Z,4.43
2018-06-16T05:42:11.894Z,4.70
2018-06-16T05:44:40.195Z,4.63
2018-06-16T05:47:08.174Z,5.43
2018-06-16T05:49:36.443Z,4.93
2018-06-16T05:52:04.807Z,4.47
2018-06-16T05:54:33.454Z,4.60
2018-06-16T05:57:02.210Z,5.50
2018-06-16T05:59:31.408Z,6.50
2018-06-16T06:01:59.723Z,5.33
2018-06-16T06:04:27.972Z,5.83
2018-06-16T06:06:56.229Z,5.30
2018-06-16T06:09:24.515Z,4.60
2018-06-16T06:11:53.065Z,4.30
2018-06-16T06:14:21.491Z,5.97
2018-06-16T06:16:49.893Z,4.87
2018-06-16T06:19:18.169Z,5.40
2018-06-16T06:21:46.141Z,5.70
2018-06-16T06:24:14.405Z,5.57
2018-06-16T06:26:42.655Z,5.23
2018-06-16T06:29:10.943Z,4.90
2018-06-16T06:31:39.194Z,4.77
2018-06-16T06:34:07.406Z,3.90
2018-06-16T06:36:35.362Z,4.73
2018-06-16T06:39:05.090Z,3.97
2018-06-16T06:41:33.624Z,4.07
2018-06-16T06:44:02.191Z,3.73
2018-06-16T06:46:30.449Z,4.70
2018-06-16T06:48:58.771Z,4.20
2018-06-16T06:51:27.189Z,3.83
2018-06-16T06:53:55.228Z,3.27
2018-06-16T06:56:23.486Z,3.40
2018-06-16T06:58:51.785Z,4.80
2018-06-16T07:01:20.148Z,3.33
2018-06-16T07:03:48.360Z,3.30
2018-06-16T07:06:16.880Z,3.17
2018-06-16T07:08:45.108Z,3.30
2018-06-16T07:11:13.445Z,3.30
2018-06-16T07:13:41.689Z,3.87
2018-06-16T07:16:10.398Z,3.20
2018-06-16T07:18:38.788Z,3.13
2018-06-16T07:21:07.103Z,2.97
2018-06-16T07:23:35.387Z,2.97
2018-06-16T07:26:03.911Z,3.27
2018-06-16T07:28:32.140Z,2.90
2018-06-16T07:31:00.596Z,2.97
2018-06-16T07:33:29.153Z,2.43
2018-06-16T07:35:57.194Z,3.77
2018-06-16T07:38:25.460Z,2.60
2018-06-16T07:40:54.140Z,2.40
2018-06-16T07:43:22.382Z,2.50
2018-06-16T07:45:50.637Z,2.57
2018-06-16T07:48:19.119Z,2.30
2018-06-16T07:50:47.610Z,2.57
2018-06-16T07:53:15.929Z,2.60
2018-06-16T07:55:44.278Z,1.70
2018-06-16T07:58:12.584Z,2.60
2018-06-16T08:00:40.817Z,2.47
2018-06-16T08:03:10.317Z,1.67
2018-06-16T08:05:38.785Z,1.80
2018-06-16T08:08:07.060Z,2.43
2018-06-16T08:10:35.360Z,2.00
2018-06-16T08:13:03.679Z,2.47
2018-06-16T08:15:31.996Z,2.30
2018-06-16T08:18:00.300Z,2.20
2018-06-16T08:20:28.580Z,2.10
2018-06-16T08:22:57.149Z,2.80
2018-06-16T08:25:25.611Z,1.77
2018-06-16T08:27:54.294Z,1.90
2018-06-16T08:30:22.546Z,1.90
2018-06-16T08:32:50.866Z,1.87
2018-06-16T08:35:19.121Z,2.37
2018-06-16T08:37:47.411Z,2.50
2018-06-16T08:40:15.691Z,1.80
2018-06-16T08:42:44.001Z,1.87
2018-06-16T08:45:12.231Z,1.70
2018-06-16T08:47:40.506Z,2.20
2018-06-16T08:50:08.781Z,2.33
2018-06-16T08:52:38.654Z,2.13
2018-06-16T08:55:06.929Z,2.00
2018-06-16T08:57:35.195Z,2.73
2018-06-16T09:00:03.798Z,1.93
2018-06-16T09:02:32.110Z,2.47
2018-06-16T09:05:00.105Z,2.40
2018-06-16T09:07:28.380Z,2.63
2018-06-16T09:09:56.673Z,2.57
2018-06-16T09:12:25.203Z,2.83
2018-06-16T09:14:53.678Z,2.83
2018-06-16T09:17:22.413Z,2.37
2018-06-16T09:19:50.702Z,2.60
2018-06-16T09:22:18.929Z,2.77
2018-06-16T09:24:47.214Z,2.40
2018-06-16T09:27:15.441Z,2.97
2018-06-16T09:29:43.760Z,3.00
2018-06-16T09:32:12.004Z,2.17
2018-06-16T09:34:40.345Z,2.87
2018-06-16T09:37:08.353Z,2.10
2018-06-16T09:39:36.568Z,2.70
2018-06-16T09:42:04.813Z,2.80
2018-06-16T09:44:33.113Z,2.40
2018-06-16T09:47:01.328Z,3.00
2018-06-16T09:49:29.673Z,2.50
2018-06-16T09:51:57.933Z,2.03
2018-06-16T09:54:26.199Z,2.57
2018-06-16T09:56:54.490Z,2.30
2018-06-16T09:59:22.770Z,2.10
2018-06-16T10:01:50.996Z,2.83
2018-06-16T10:04:19.053Z,2.57
2018-06-16T10:06:47.059Z,2.50
2018-06-16T10:09:15.381Z,2.77
2018-06-16T10:11:43.605Z,2.60
2018-06-16T10:14:11.874Z,2.53
2018-06-16T10:16:40.125Z,2.27
2018-06-16T10:19:08.347Z,2.37
2018-06-16T10:21:36.602Z,2.23
2018-06-16T10:24:04.582Z,2.40
2018-06-16T10:26:32.830Z,2.63
2018-06-16T10:29:01.109Z,2.53
2018-06-16T10:31:29.345Z,2.30
2018-06-16T10:33:57.569Z,2.20
2018-06-16T10:36:25.576Z,2.07
2018-06-16T10:38:53.594Z,2.40
2018-06-16T10:41:21.890Z,2.50
2018-06-16T10:43:50.141Z,2.43
2018-06-16T10:46:18.528Z,2.87
2018-06-16T10:48:46.795Z,2.20
2018-06-16T10:51:15.158Z,2.50
2018-06-16T10:53:43.417Z,3.27
2018-06-16T10:56:11.728Z,2.30
2018-06-16T10:58:40.004Z,1.70
2018-06-16T11:01:08.278Z,1.73
2018-06-16T11:03:36.537Z,2.17
2018-06-16T11:06:04.826Z,2.00
2018-06-16T11:08:33.089Z,2.10
2018-06-16T11:11:01.312Z,2.30
2018-06-16T11:13:29.540Z,2.50
2018-06-16T11:15:57.817Z,1.70
2018-06-16T11:18:26.027Z,1.70
2018-06-16T11:20:54.286Z,1.87
2018-06-16T11:23:23.105Z,1.63
2018-06-16T11:25:51.356Z,2.20
2018-06-16T11:28:19.344Z,2.30
2018-06-16T11:30:47.588Z,1.87
2018-06-16T11:33:15.874Z,1.57
2018-06-16T11:35:44.122Z,2.17
2018-06-16T11:38:14.526Z,1.57
2018-06-16T11:40:42.516Z,1.73
2018-06-16T11:43:10.480Z,2.00
2018-06-16T11:45:38.759Z,1.60
2018-06-16T11:48:06.989Z,1.60
2018-06-16T11:50:35.256Z,1.50
2018-06-16T11:53:03.488Z,1.70
2018-06-16T11:55:31.897Z,2.10
2018-06-16T11:57:59.964Z,1.50
2018-06-16T12:00:28.204Z,2.17
2018-06-16T12:02:56.564Z,1.70
2018-06-16T12:05:24.805Z,1.90
2018-06-16T12:07:53.046Z,2.30
2018-06-16T12:10:21.373Z,2.17
2018-06-16T12:12:49.561Z,1.60
2018-06-16T12:15:17.810Z,1.43
2018-06-16T12:17:46.041Z,1.50
2018-06-16T12:20:14.323Z,2.20
2018-06-16T12:22:42.598Z,1.63
2018-06-16T12:25:10.809Z,1.20
2018-06-16T12:27:39.068Z,1.07
2018-06-16T12:30:07.417Z,1.23
2018-06-16T12:32:35.665Z,1.30
2018-06-16T12:35:03.857Z,1.43
2018-06-16T12:37:32.169Z,1.30
2018-06-16T12:40:00.108Z,1.07
2018-06-16T12:42:28.378Z,1.20
2018-06-16T12:44:56.694Z,1.27
2018-06-16T12:47:24.913Z,1.23
2018-06-16T12:49:53.177Z,1.83
2018-06-16T12:52:21.456Z,1.20
2018-06-16T12:54:49.482Z,1.27
2018-06-16T12:57:18.305Z,1.00
2018-06-16T12:59:46.332Z,1.00
2018-06-16T13:02:14.651Z,1.00
2018-06-16T13:04:42.841Z,1.67
2018-06-16T13:07:11.069Z,1.10
2018-06-16T13:09:39.319Z,2.17
2018-06-16T13:12:07.707Z,1.10
2018-06-16T13:14:36.171Z,0.90
2018-06-16T13:17:04.426Z,0.90
2018-06-16T13:19:32.665Z,1.20
2018-06-16T13:22:00.653Z,1.27
2018-06-16T13:24:29.048Z,0.93
2018-06-16T13:26:57.256Z,1.20
2018-06-16T13:29:25.627Z,1.60
2018-06-16T13:31:53.837Z,1.60
2018-06-16T13:34:22.049Z,1.30
2018-06-16T13:36:50.468Z,1.30
2018-06-16T13:39:18.710Z,1.23
2018-06-16T13:41:46.938Z,0.93
2018-06-16T13:44:15.186Z,1.23
2018-06-16T13:46:43.494Z,1.10
2018-06-16T13:49:11.754Z,1.30
2018-06-16T13:51:40.167Z,1.70
2018-06-16T13:54:08.189Z,1.57
2018-06-16T13:56:36.431Z,1.70
2018-06-16T13:59:04.635Z,1.60
2018-06-16T14:01:32.815Z,1.30
2018-06-16T14:04:00.833Z,1.80
2018-06-16T14:06:29.062Z,1.43
2018-06-16T14:08:57.288Z,1.63
2018-06-16T14:11:25.521Z,1.67
2018-06-16T14:13:53.857Z,1.27
2018-06-16T14:16:22.085Z,1.53
2018-06-16T14:18:50.957Z,1.33
2018-06-16T14:21:19.181Z,1.43
2018-06-16T14:23:48.223Z,1.40
2018-06-16T14:26:16.586Z,1.50
2018-06-16T14:28:45.142Z,1.60
2018-06-16T14:31:13.392Z,1.60
2018-06-16T14:33:41.715Z,1.30
2018-06-16T14:36:09.936Z,1.80
2018-06-16T14:38:38.163Z,1.90
2018-06-16T14:41:06.585Z,1.50
2018-06-16T14:43:34.900Z,1.70
2018-06-16T14:46:03.224Z,1.30
2018-06-16T14:48:31.518Z,1.60
2018-06-16T14:51:00.062Z,1.50
2018-06-16T14:53:28.542Z,1.70
2018-06-16T14:55:56.932Z,1.93
2018-06-16T14:58:28.257Z,1.47
2018-06-16T15:00:57.438Z,1.40
2018-06-16T15:03:25.789Z,1.80
2018-06-16T15:05:54.050Z,1.53
2018-06-16T15:08:22.679Z,1.60
2018-06-16T15:10:51.983Z,1.40
2018-06-16T15:14:49.694Z,1.13
2018-06-16T15:17:18.054Z,1.40
2018-06-16T15:19:46.277Z,1.30
2018-06-16T15:22:14.629Z,2.03
2018-06-16T15:24:42.879Z,1.63
2018-06-16T15:27:10.843Z,1.10
2018-06-16T15:29:38.918Z,1.23
2018-06-16T15:32:07.447Z,1.17
2018-06-16T15:34:35.671Z,1.67
2018-06-16T15:37:04.013Z,1.63
2018-06-16T15:39:32.075Z,1.77
2018-06-16T15:42:00.356Z,1.50
2018-06-16T15:44:28.602Z,1.60
2018-06-16T15:46:56.954Z,1.80
2018-06-16T15:49:25.173Z,1.70
2018-06-16T15:51:53.413Z,1.53
2018-06-16T15:54:21.857Z,1.70
2018-06-16T15:56:50.152Z,3.50
2018-06-16T15:59:18.372Z,2.40
2018-06-16T16:01:46.649Z,2.60
2018-06-16T16:04:15.236Z,1.93
2018-06-16T16:06:43.517Z,5.37
2018-06-16T16:09:11.749Z,3.50
2018-06-16T16:11:40.214Z,2.30
2018-06-16T16:14:08.587Z,2.70
2018-06-16T16:16:36.967Z,2.40
2018-06-16T16:19:05.258Z,5.83
2018-06-16T16:21:33.568Z,2.97
2018-06-16T16:24:01.761Z,3.50
2018-06-16T16:26:29.951Z,3.00
2018-06-16T16:28:58.305Z,3.30
2018-06-16T16:31:26.292Z,2.97
2018-06-16T16:33:54.632Z,3.20
2018-06-16T16:36:22.961Z,2.70
2018-06-16T16:38:51.298Z,3.00
2018-06-16T16:41:19.564Z,2.60
2018-06-16T16:43:48.114Z,3.00
2018-06-16T16:46:16.430Z,4.30
2018-06-16T16:48:45.778Z,4.40
2018-06-16T16:51:15.056Z,3.40
2018-06-16T16:53:43.762Z,4.13
2018-06-16T16:56:13.600Z,3.40
2018-06-16T16:58:41.677Z,3.00
2018-06-16T17:01:10.232Z,3.00
2018-06-16T17:03:38.738Z,2.80
2018-06-16T17:06:07.251Z,3.57
2018-06-16T17:08:35.494Z,3.67
2018-06-16T17:11:04.234Z,3.40
2018-06-16T17:13:33.321Z,2.93
2018-06-16T17:16:01.869Z,2.90
2018-06-16T17:18:30.113Z,2.80
2018-06-16T17:21:02.614Z,2.50
2018-06-16T17:23:31.767Z,2.60
2018-06-16T17:26:01.630Z,3.47
2018-06-16T17:28:29.894Z,3.63
2018-06-16T17:31:00.350Z,3.13
2018-06-16T17:33:34.678Z,3.20
2018-06-16T17:36:03.978Z,3.30
2018-06-16T17:38:32.848Z,3.57
2018-06-16T17:41:02.087Z,3.40
2018-06-16T17:43:30.418Z,3.47
2018-06-16T17:45:58.883Z,3.30
2018-06-16T17:48:27.625Z,2.90
2018-06-16T17:50:55.853Z,2.87
2018-06-16T17:53:24.288Z,3.40
2018-06-16T17:55:52.441Z,3.43
2018-06-16T17:58:20.715Z,2.77
2018-06-16T18:00:52.625Z,3.30
2018-06-16T18:03:20.852Z,3.00
2018-06-16T18:05:49.708Z,3.50
2018-06-16T18:08:17.960Z,3.43
2018-06-16T18:10:46.205Z,2.70
2018-06-16T18:13:14.902Z,2.67
2018-06-16T18:15:43.734Z,3.53
2018-06-16T18:18:12.370Z,3.93
2018-06-16T18:20:40.885Z,3.53
2018-06-16T18:23:09.289Z,3.90
2018-06-16T18:25:38.009Z,3.73
2018-06-16T18:28:08.605Z,4.13
2018-06-16T18:30:40.231Z,4.90
2018-06-16T18:33:09.039Z,5.10
2018-06-16T18:35:37.489Z,5.93
2018-06-16T18:38:05.754Z,6.63
2018-06-16T18:40:33.963Z,7.33
2018-06-16T18:43:02.351Z,8.20
2018-06-16T18:45:30.594Z,8.33
2018-06-16T18:47:58.941Z,9.10
2018-06-16T18:50:27.199Z,8.70
2018-06-16T18:52:55.449Z,9.30
2018-06-16T18:55:23.777Z,10.30
2018-06-16T18:57:52.035Z,9.37
2018-06-16T19:00:20.292Z,9.77
2018-06-16T19:02:48.543Z,9.10
2018-06-16T19:05:16.753Z,9.80
2018-06-16T19:07:44.992Z,9.20
2018-06-16T19:10:13.024Z,10.37
2018-06-16T19:12:41.288Z,11.37
2018-06-16T19:15:09.268Z,9.63
2018-06-16T19:17:38.121Z,10.17
2018-06-16T19:20:06.451Z,9.57
2018-06-16T19:22:34.746Z,9.90
2018-06-16T19:25:03.022Z,11.83
2018-06-16T19:27:31.293Z,11.43
2018-06-16T19:29:59.554Z,10.90
2018-06-16T19:32:27.810Z,10.60
2018-06-16T19:34:56.078Z,10.57
2018-06-16T19:37:24.318Z,11.80
2018-06-16T19:39:52.697Z,10.77
2018-06-16T19:42:20.962Z,10.30
2018-06-16T19:44:49.221Z,11.33
2018-06-16T19:47:17.451Z,10.60
2018-06-16T19:49:45.729Z,12.13
2018-06-16T19:52:13.977Z,12.90
2018-06-16T19:54:42.445Z,11.77
2018-06-16T19:57:10.727Z,13.90
2018-06-16T19:59:38.719Z,12.50
2018-06-16T20:02:07.318Z,11.77
2018-06-16T20:04:35.401Z,12.30
2018-06-16T20:07:03.914Z,11.73
2018-06-16T20:09:32.370Z,13.20
2018-06-16T20:12:00.751Z,13.37
2018-06-16T20:14:29.186Z,14.17
2018-06-16T20:16:57.601Z,12.70
2018-06-16T20:19:25.982Z,14.13
2018-06-16T20:21:55.160Z,14.83
2018-06-16T20:24:23.478Z,17.33
2018-06-16T20:26:51.489Z,11.30
2018-06-16T20:29:19.551Z,10.47
2018-06-16T20:31:47.933Z,10.40
2018-06-16T20:34:16.169Z,10.50
2018-06-16T20:36:46.940Z,10.43
2018-06-16T20:39:15.675Z,11.33
2018-06-16T20:41:43.747Z,10.30
2018-06-16T20:44:13.753Z,9.50
2018-06-16T20:46:49.708Z,10.23
2018-06-16T20:49:22.306Z,10.70
2018-06-16T20:54:54.620Z,9.87
2018-06-16T20:57:22.971Z,9.47
2018-06-16T20:59:51.490Z,11.73
2018-06-16T21:02:21.335Z,10.73
2018-06-16T21:04:49.948Z,10.67
2018-06-16T21:07:33.060Z,10.37
2018-06-16T21:13:05.301Z,10.23
2018-06-16T21:18:36.262Z,9.20
2018-06-16T21:21:12.861Z,8.60
2018-06-16T21:26:22.686Z,7.50
2018-06-16T21:31:47.023Z,7.67
2018-06-16T21:34:15.255Z,6.80
2018-06-16T21:36:43.719Z,7.70
2018-06-16T21:39:15.624Z,6.13
2018-06-16T21:41:52.750Z,6.57
2018-06-16T21:44:21.389Z,6.13
2018-06-16T21:49:58.948Z,5.43
2018-06-16T21:59:01.032Z,6.00
2018-06-16T22:01:32.006Z,5.30
2018-06-16T22:07:24.553Z,4.97
2018-06-16T22:12:53.533Z,6.10
2018-06-16T22:21:14.380Z,5.23
2018-06-16T22:29:32.980Z,5.90
2018-06-16T22:32:05.059Z,5.67
2018-06-16T22:50:41.902Z,6.10
2018-06-16T22:56:25.554Z,6.70
2018-06-16T23:01:53.323Z,6.63
2018-06-16T23:07:21.359Z,7.00
2018-06-16T23:10:01.767Z,7.00
2018-06-16T23:12:30.353Z,6.33
2018-06-16T23:14:58.830Z,6.80
2018-06-16T23:17:50.338Z,7.00
2018-06-16T23:23:21.691Z,6.67
2018-06-16T23:26:23.990Z,11.07
2018-06-16T23:29:08.957Z,6.87
2018-06-16T23:31:37.533Z,7.27
2018-06-16T23:34:16.253Z,6.97
2018-06-16T23:48:24.913Z,6.43
2018-06-16T23:50:53.246Z,6.20
